sensor_id;sensor_type;location;lat;lon;timestamp;P1;durP1;ratioP1;P2;durP2;ratioP2
5967;SDS011;3010;51.028;4.170;2023-03-20T00:00:38;31.00;;;17.23;;
5967;SDS011;3010;51.028;4.170;2023-03-20T00:03:04;27.13;;;15.77;;
5967;SDS011;3010;51.028;4.170;2023-03-20T00:05:31;27.40;;;16.17;;
5967;SDS011;3010;51.028;4.170;2023-03-20T00:07:58;29.65;;;20.20;;
5967;SDS011;3010;51.028;4.170;2023-03-20T00:10:27;25.70;;;17.97;;
5967;SDS011;3010;51.028;4.170;2023-03-20T00:13:00;28.08;;;21.00;;
5967;SDS011;3010;51.028;4.170;2023-03-20T00:15:27;31.47;;;18.43;;
5967;SDS011;3010;51.028;4.170;2023-03-20T00:17:56;28.73;;;18.63;;
5967;SDS011;3010;51.028;4.170;2023-03-20T00:20:22;23.00;;;16.90;;
5967;SDS011;3010;51.028;4.170;2023-03-20T00:22:49;31.33;;;17.33;;
5967;SDS011;3010;51.028;4.170;2023-03-20T00:25:16;37.43;;;17.50;;
5967;SDS011;3010;51.028;4.170;2023-03-20T00:27:42;29.00;;;16.70;;
5967;SDS011;3010;51.028;4.170;2023-03-20T00:32:48;35.10;;;16.93;;
5967;SDS011;3010;51.028;4.170;2023-03-20T00:35:18;28.67;;;17.43;;
5967;SDS011;3010;51.028;4.170;2023-03-20T00:37:43;29.03;;;17.57;;
5967;SDS011;3010;51.028;4.170;2023-03-20T00:40:10;26.23;;;17.23;;
5967;SDS011;3010;51.028;4.170;2023-03-20T00:42:37;29.00;;;17.17;;
5967;SDS011;3010;51.028;4.170;2023-03-20T00:45:03;31.13;;;17.63;;
5967;SDS011;3010;51.028;4.170;2023-03-20T00:47:30;29.63;;;16.30;;
5967;SDS011;3010;51.028;4.170;2023-03-20T00:49:57;30.13;;;17.10;;
5967;SDS011;3010;51.028;4.170;2023-03-20T00:52:23;29.23;;;16.17;;
5967;SDS011;3010;51.028;4.170;2023-03-20T00:54:50;25.43;;;15.63;;
5967;SDS011;3010;51.028;4.170;2023-03-20T00:57:21;28.43;;;15.77;;
5967;SDS011;3010;51.028;4.170;2023-03-20T00:59:50;22.37;;;14.20;;
5967;SDS011;3010;51.028;4.170;2023-03-20T01:02:12;25.40;;;16.30;;
5967;SDS011;3010;51.028;4.170;2023-03-20T01:04:40;28.57;;;16.00;;
5967;SDS011;3010;51.028;4.170;2023-03-20T01:07:06;28.43;;;16.57;;
5967;SDS011;3010;51.028;4.170;2023-03-20T01:09:32;28.07;;;16.67;;
5967;SDS011;3010;51.028;4.170;2023-03-20T01:11:59;34.70;;;21.83;;
5967;SDS011;3010;51.028;4.170;2023-03-20T01:14:25;34.60;;;18.13;;
5967;SDS011;3010;51.028;4.170;2023-03-20T01:16:52;33.73;;;18.90;;
5967;SDS011;3010;51.028;4.170;2023-03-20T01:19:18;30.23;;;18.57;;
5967;SDS011;3010;51.028;4.170;2023-03-20T01:21:45;32.33;;;18.07;;
5967;SDS011;3010;51.028;4.170;2023-03-20T01:24:11;32.07;;;18.30;;
5967;SDS011;3010;51.028;4.170;2023-03-20T01:26:39;29.60;;;17.97;;
5967;SDS011;3010;51.028;4.170;2023-03-20T01:31:43;39.53;;;24.13;;
5967;SDS011;3010;51.028;4.170;2023-03-20T01:34:10;34.30;;;20.33;;
5967;SDS011;3010;51.028;4.170;2023-03-20T01:36:36;33.40;;;19.07;;
5967;SDS011;3010;51.028;4.170;2023-03-20T01:39:03;32.87;;;19.33;;
5967;SDS011;3010;51.028;4.170;2023-03-20T01:41:29;34.20;;;19.80;;
5967;SDS011;3010;51.028;4.170;2023-03-20T01:43:56;33.80;;;20.30;;
5967;SDS011;3010;51.028;4.170;2023-03-20T01:46:24;38.03;;;21.57;;
5967;SDS011;3010;51.028;4.170;2023-03-20T01:51:16;33.80;;;20.10;;
5967;SDS011;3010;51.028;4.170;2023-03-20T01:53:43;36.50;;;20.43;;
5967;SDS011;3010;51.028;4.170;2023-03-20T01:56:09;38.37;;;21.07;;
5967;SDS011;3010;51.028;4.170;2023-03-20T01:58:36;36.83;;;21.40;;
5967;SDS011;3010;51.028;4.170;2023-03-20T02:01:02;35.40;;;21.80;;
5967;SDS011;3010;51.028;4.170;2023-03-20T02:03:29;39.83;;;21.50;;
5967;SDS011;3010;51.028;4.170;2023-03-20T02:05:55;36.57;;;21.07;;
5967;SDS011;3010;51.028;4.170;2023-03-20T02:08:29;33.37;;;20.57;;
5967;SDS011;3010;51.028;4.170;2023-03-20T02:10:55;40.93;;;20.77;;
5967;SDS011;3010;51.028;4.170;2023-03-20T02:13:21;36.50;;;21.60;;
5967;SDS011;3010;51.028;4.170;2023-03-20T02:16:02;34.87;;;20.67;;
5967;SDS011;3010;51.028;4.170;2023-03-20T02:18:29;34.87;;;20.20;;
5967;SDS011;3010;51.028;4.170;2023-03-20T02:24:08;34.27;;;19.20;;
5967;SDS011;3010;51.028;4.170;2023-03-20T02:26:30;34.93;;;20.27;;
5967;SDS011;3010;51.028;4.170;2023-03-20T02:39:28;35.17;;;20.13;;
5967;SDS011;3010;51.028;4.170;2023-03-20T02:42:11;34.83;;;20.20;;
5967;SDS011;3010;51.028;4.170;2023-03-20T02:45:12;35.83;;;18.97;;
5967;SDS011;3010;51.028;4.170;2023-03-20T02:47:47;40.58;;;24.95;;
5967;SDS011;3010;51.028;4.170;2023-03-20T02:55:18;38.37;;;20.10;;
5967;SDS011;3010;51.028;4.170;2023-03-20T03:00:28;41.40;;;23.67;;
5967;SDS011;3010;51.028;4.170;2023-03-20T03:02:56;44.63;;;25.33;;
5967;SDS011;3010;51.028;4.170;2023-03-20T03:05:21;39.60;;;20.17;;
5967;SDS011;3010;51.028;4.170;2023-03-20T03:07:47;34.50;;;19.90;;
5967;SDS011;3010;51.028;4.170;2023-03-20T03:10:18;33.67;;;18.33;;
5967;SDS011;3010;51.028;4.170;2023-03-20T03:12:43;45.83;;;24.25;;
5967;SDS011;3010;51.028;4.170;2023-03-20T03:15:12;39.10;;;19.00;;
5967;SDS011;3010;51.028;4.170;2023-03-20T03:17:36;41.60;;;18.87;;
5967;SDS011;3010;51.028;4.170;2023-03-20T03:20:04;42.03;;;19.00;;
5967;SDS011;3010;51.028;4.170;2023-03-20T03:22:29;33.87;;;17.70;;
5967;SDS011;3010;51.028;4.170;2023-03-20T03:24:55;35.03;;;19.00;;
5967;SDS011;3010;51.028;4.170;2023-03-20T03:27:30;44.05;;;23.67;;
5967;SDS011;3010;51.028;4.170;2023-03-20T03:29:56;37.37;;;19.57;;
5967;SDS011;3010;51.028;4.170;2023-03-20T03:32:24;33.90;;;19.47;;
5967;SDS011;3010;51.028;4.170;2023-03-20T03:34:48;34.70;;;17.50;;
5967;SDS011;3010;51.028;4.170;2023-03-20T03:37:23;34.23;;;17.93;;
5967;SDS011;3010;51.028;4.170;2023-03-20T03:40:04;40.50;;;20.00;;
5967;SDS011;3010;51.028;4.170;2023-03-20T03:42:32;35.60;;;18.03;;
5967;SDS011;3010;51.028;4.170;2023-03-20T03:45:04;48.47;;;18.40;;
5967;SDS011;3010;51.028;4.170;2023-03-20T03:50:01;34.50;;;17.93;;
5967;SDS011;3010;51.028;4.170;2023-03-20T03:52:26;34.70;;;16.93;;
5967;SDS011;3010;51.028;4.170;2023-03-20T03:54:55;33.63;;;18.37;;
5967;SDS011;3010;51.028;4.170;2023-03-20T03:57:21;41.97;;;23.02;;
5967;SDS011;3010;51.028;4.170;2023-03-20T03:59:49;35.93;;;18.33;;
5967;SDS011;3010;51.028;4.170;2023-03-20T04:02:17;33.57;;;18.10;;
5967;SDS011;3010;51.028;4.170;2023-03-20T04:04:44;34.13;;;17.53;;
5967;SDS011;3010;51.028;4.170;2023-03-20T04:07:10;37.67;;;17.60;;
5967;SDS011;3010;51.028;4.170;2023-03-20T04:09:36;30.93;;;16.67;;
5967;SDS011;3010;51.028;4.170;2023-03-20T04:12:03;37.83;;;17.20;;
5967;SDS011;3010;51.028;4.170;2023-03-20T04:14:30;34.50;;;16.47;;
5967;SDS011;3010;51.028;4.170;2023-03-20T04:16:56;36.00;;;17.77;;
5967;SDS011;3010;51.028;4.170;2023-03-20T04:19:23;26.93;;;16.30;;
5967;SDS011;3010;51.028;4.170;2023-03-20T04:21:49;35.53;;;17.03;;
5967;SDS011;3010;51.028;4.170;2023-03-20T04:24:16;33.27;;;17.07;;
5967;SDS011;3010;51.028;4.170;2023-03-20T04:26:43;32.63;;;16.67;;
5967;SDS011;3010;51.028;4.170;2023-03-20T04:29:09;36.97;;;16.57;;
5967;SDS011;3010;51.028;4.170;2023-03-20T04:31:36;32.77;;;16.27;;
5967;SDS011;3010;51.028;4.170;2023-03-20T04:34:02;33.50;;;15.90;;
5967;SDS011;3010;51.028;4.170;2023-03-20T04:36:29;32.73;;;16.57;;
5967;SDS011;3010;51.028;4.170;2023-03-20T04:38:55;36.33;;;16.37;;
5967;SDS011;3010;51.028;4.170;2023-03-20T04:41:22;30.77;;;16.67;;
5967;SDS011;3010;51.028;4.170;2023-03-20T04:43:49;36.20;;;16.53;;
5967;SDS011;3010;51.028;4.170;2023-03-20T04:46:15;36.67;;;17.63;;
5967;SDS011;3010;51.028;4.170;2023-03-20T04:48:42;36.30;;;16.73;;
5967;SDS011;3010;51.028;4.170;2023-03-20T04:51:08;34.57;;;16.70;;
5967;SDS011;3010;51.028;4.170;2023-03-20T04:53:35;27.77;;;15.70;;
5967;SDS011;3010;51.028;4.170;2023-03-20T04:56:02;30.53;;;16.10;;
5967;SDS011;3010;51.028;4.170;2023-03-20T04:58:28;39.60;;;16.77;;
5967;SDS011;3010;51.028;4.170;2023-03-20T05:00:55;35.63;;;15.90;;
5967;SDS011;3010;51.028;4.170;2023-03-20T05:03:21;37.40;;;19.52;;
5967;SDS011;3010;51.028;4.170;2023-03-20T05:05:48;31.17;;;15.77;;
5967;SDS011;3010;51.028;4.170;2023-03-20T05:08:15;34.73;;;16.40;;
5967;SDS011;3010;51.028;4.170;2023-03-20T05:10:41;33.67;;;15.10;;
5967;SDS011;3010;51.028;4.170;2023-03-20T05:13:08;31.53;;;16.03;;
5967;SDS011;3010;51.028;4.170;2023-03-20T05:15:34;34.93;;;16.60;;
5967;SDS011;3010;51.028;4.170;2023-03-20T05:18:01;33.43;;;15.97;;
5967;SDS011;3010;51.028;4.170;2023-03-20T05:20:27;28.77;;;15.30;;
5967;SDS011;3010;51.028;4.170;2023-03-20T05:22:54;27.63;;;15.83;;
5967;SDS011;3010;51.028;4.170;2023-03-20T05:25:21;37.08;;;19.48;;
5967;SDS011;3010;51.028;4.170;2023-03-20T05:27:47;29.93;;;16.83;;
5967;SDS011;3010;51.028;4.170;2023-03-20T05:30:14;35.75;;;19.27;;
5967;SDS011;3010;51.028;4.170;2023-03-20T05:32:40;35.60;;;16.80;;
5967;SDS011;3010;51.028;4.170;2023-03-20T05:35:07;42.38;;;19.35;;
5967;SDS011;3010;51.028;4.170;2023-03-20T05:37:34;31.17;;;16.57;;
5967;SDS011;3010;51.028;4.170;2023-03-20T05:40:00;37.55;;;18.52;;
5967;SDS011;3010;51.028;4.170;2023-03-20T05:42:27;30.80;;;16.43;;
5967;SDS011;3010;51.028;4.170;2023-03-20T05:44:53;31.53;;;15.40;;
5967;SDS011;3010;51.028;4.170;2023-03-20T05:47:20;35.37;;;15.90;;
5967;SDS011;3010;51.028;4.170;2023-03-20T05:49:47;28.17;;;14.20;;
5967;SDS011;3010;51.028;4.170;2023-03-20T05:52:13;31.00;;;15.10;;
5967;SDS011;3010;51.028;4.170;2023-03-20T05:54:40;30.87;;;15.73;;
5967;SDS011;3010;51.028;4.170;2023-03-20T05:57:06;31.93;;;15.13;;
5967;SDS011;3010;51.028;4.170;2023-03-20T05:59:33;34.50;;;14.97;;
5967;SDS011;3010;51.028;4.170;2023-03-20T06:02:00;35.30;;;19.60;;
5967;SDS011;3010;51.028;4.170;2023-03-20T06:04:26;36.43;;;16.40;;
5967;SDS011;3010;51.028;4.170;2023-03-20T06:06:53;28.40;;;15.63;;
5967;SDS011;3010;51.028;4.170;2023-03-20T06:09:19;29.27;;;14.73;;
5967;SDS011;3010;51.028;4.170;2023-03-20T06:11:46;30.87;;;16.23;;
5967;SDS011;3010;51.028;4.170;2023-03-20T06:14:12;35.47;;;15.33;;
5967;SDS011;3010;51.028;4.170;2023-03-20T06:16:39;27.73;;;14.10;;
5967;SDS011;3010;51.028;4.170;2023-03-20T06:19:06;28.60;;;13.53;;
5967;SDS011;3010;51.028;4.170;2023-03-20T06:21:32;31.15;;;17.12;;
5967;SDS011;3010;51.028;4.170;2023-03-20T06:23:59;30.50;;;14.17;;
5967;SDS011;3010;51.028;4.170;2023-03-20T06:26:25;25.90;;;14.23;;
5967;SDS011;3010;51.028;4.170;2023-03-20T06:28:52;23.67;;;13.10;;
5967;SDS011;3010;51.028;4.170;2023-03-20T06:31:19;31.87;;;15.73;;
5967;SDS011;3010;51.028;4.170;2023-03-20T06:33:45;26.10;;;13.57;;
5967;SDS011;3010;51.028;4.170;2023-03-20T06:36:12;26.80;;;13.23;;
5967;SDS011;3010;51.028;4.170;2023-03-20T06:38:38;23.87;;;13.30;;
5967;SDS011;3010;51.028;4.170;2023-03-20T06:41:05;29.30;;;13.27;;
5967;SDS011;3010;51.028;4.170;2023-03-20T06:43:32;30.93;;;12.90;;
5967;SDS011;3010;51.028;4.170;2023-03-20T06:45:58;31.30;;;12.43;;
5967;SDS011;3010;51.028;4.170;2023-03-20T06:48:25;32.97;;;15.65;;
5967;SDS011;3010;51.028;4.170;2023-03-20T06:50:51;35.67;;;13.53;;
5967;SDS011;3010;51.028;4.170;2023-03-20T06:53:18;24.83;;;13.17;;
5967;SDS011;3010;51.028;4.170;2023-03-20T06:55:47;30.77;;;12.97;;
5967;SDS011;3010;51.028;4.170;2023-03-20T06:58:14;30.73;;;14.70;;
5967;SDS011;3010;51.028;4.170;2023-03-20T07:00:40;31.87;;;13.20;;
5967;SDS011;3010;51.028;4.170;2023-03-20T07:03:07;25.47;;;12.33;;
5967;SDS011;3010;51.028;4.170;2023-03-20T07:05:34;20.10;;;11.43;;
5967;SDS011;3010;51.028;4.170;2023-03-20T07:08:00;27.97;;;12.13;;
5967;SDS011;3010;51.028;4.170;2023-03-20T07:10:27;25.17;;;11.93;;
5967;SDS011;3010;51.028;4.170;2023-03-20T07:12:53;22.57;;;11.50;;
5967;SDS011;3010;51.028;4.170;2023-03-20T07:15:20;25.43;;;11.13;;
5967;SDS011;3010;51.028;4.170;2023-03-20T07:17:46;23.90;;;12.43;;
5967;SDS011;3010;51.028;4.170;2023-03-20T07:20:13;26.27;;;12.90;;
5967;SDS011;3010;51.028;4.170;2023-03-20T07:22:40;25.60;;;10.97;;
5967;SDS011;3010;51.028;4.170;2023-03-20T07:25:07;22.47;;;10.70;;
5967;SDS011;3010;51.028;4.170;2023-03-20T07:27:33;23.37;;;9.83;;
5967;SDS011;3010;51.028;4.170;2023-03-20T07:29:59;22.47;;;10.47;;
5967;SDS011;3010;51.028;4.170;2023-03-20T07:32:26;23.40;;;9.60;;
5967;SDS011;3010;51.028;4.170;2023-03-20T07:34:53;23.30;;;9.57;;
5967;SDS011;3010;51.028;4.170;2023-03-20T07:37:19;23.17;;;9.27;;
5967;SDS011;3010;51.028;4.170;2023-03-20T07:39:46;19.83;;;9.43;;
5967;SDS011;3010;51.028;4.170;2023-03-20T07:42:12;20.67;;;8.53;;
5967;SDS011;3010;51.028;4.170;2023-03-20T07:44:39;26.50;;;10.45;;
5967;SDS011;3010;51.028;4.170;2023-03-20T07:47:06;23.40;;;8.70;;
5967;SDS011;3010;51.028;4.170;2023-03-20T07:49:32;21.70;;;9.98;;
5967;SDS011;3010;51.028;4.170;2023-03-20T07:51:59;20.87;;;9.07;;
5967;SDS011;3010;51.028;4.170;2023-03-20T07:54:25;15.87;;;8.77;;
5967;SDS011;3010;51.028;4.170;2023-03-20T07:56:52;26.83;;;8.80;;
5967;SDS011;3010;51.028;4.170;2023-03-20T07:59:18;17.57;;;8.07;;
5967;SDS011;3010;51.028;4.170;2023-03-20T08:01:45;21.07;;;7.90;;
5967;SDS011;3010;51.028;4.170;2023-03-20T08:04:12;16.57;;;8.47;;
5967;SDS011;3010;51.028;4.170;2023-03-20T08:06:38;25.23;;;9.32;;
5967;SDS011;3010;51.028;4.170;2023-03-20T08:09:05;16.40;;;7.57;;
5967;SDS011;3010;51.028;4.170;2023-03-20T08:11:31;16.77;;;7.77;;
5967;SDS011;3010;51.028;4.170;2023-03-20T08:13:58;17.03;;;7.17;;
5967;SDS011;3010;51.028;4.170;2023-03-20T08:16:25;17.80;;;7.90;;
5967;SDS011;3010;51.028;4.170;2023-03-20T08:18:51;17.40;;;7.00;;
5967;SDS011;3010;51.028;4.170;2023-03-20T08:21:18;17.10;;;7.60;;
5967;SDS011;3010;51.028;4.170;2023-03-20T08:23:44;17.40;;;6.97;;
5967;SDS011;3010;51.028;4.170;2023-03-20T08:26:11;19.20;;;7.50;;
5967;SDS011;3010;51.028;4.170;2023-03-20T08:28:37;17.70;;;6.97;;
5967;SDS011;3010;51.028;4.170;2023-03-20T08:31:10;18.17;;;7.63;;
5967;SDS011;3010;51.028;4.170;2023-03-20T08:33:34;15.80;;;6.90;;
5967;SDS011;3010;51.028;4.170;2023-03-20T08:36:00;20.53;;;7.57;;
5967;SDS011;3010;51.028;4.170;2023-03-20T08:38:27;13.93;;;6.97;;
5967;SDS011;3010;51.028;4.170;2023-03-20T08:40:53;18.27;;;7.23;;
5967;SDS011;3010;51.028;4.170;2023-03-20T08:43:20;19.87;;;7.43;;
5967;SDS011;3010;51.028;4.170;2023-03-20T08:45:46;9.90;;;6.63;;
5967;SDS011;3010;51.028;4.170;2023-03-20T08:48:13;12.43;;;8.07;;
5967;SDS011;3010;51.028;4.170;2023-03-20T08:50:40;17.33;;;8.00;;
5967;SDS011;3010;51.028;4.170;2023-03-20T08:53:06;14.07;;;7.30;;
5967;SDS011;3010;51.028;4.170;2023-03-20T08:55:33;17.33;;;7.23;;
5967;SDS011;3010;51.028;4.170;2023-03-20T08:57:59;17.03;;;7.20;;
5967;SDS011;3010;51.028;4.170;2023-03-20T09:00:26;17.75;;;8.05;;
5967;SDS011;3010;51.028;4.170;2023-03-20T09:02:53;15.37;;;7.83;;
5967;SDS011;3010;51.028;4.170;2023-03-20T09:05:19;16.23;;;8.85;;
5967;SDS011;3010;51.028;4.170;2023-03-20T09:07:46;17.40;;;7.13;;
5967;SDS011;3010;51.028;4.170;2023-03-20T09:10:12;16.77;;;8.23;;
5967;SDS011;3010;51.028;4.170;2023-03-20T09:12:39;18.63;;;7.73;;
5967;SDS011;3010;51.028;4.170;2023-03-20T09:15:06;14.97;;;6.90;;
5967;SDS011;3010;51.028;4.170;2023-03-20T09:17:32;10.80;;;6.20;;
5967;SDS011;3010;51.028;4.170;2023-03-20T09:19:59;16.47;;;7.27;;
5967;SDS011;3010;51.028;4.170;2023-03-20T09:22:25;13.77;;;6.57;;
5967;SDS011;3010;51.028;4.170;2023-03-20T09:24:52;11.83;;;6.33;;
5967;SDS011;3010;51.028;4.170;2023-03-20T09:27:18;14.20;;;6.97;;
5967;SDS011;3010;51.028;4.170;2023-03-20T09:29:45;13.70;;;6.80;;
5967;SDS011;3010;51.028;4.170;2023-03-20T09:32:12;13.82;;;7.40;;
5967;SDS011;3010;51.028;4.170;2023-03-20T09:34:38;15.13;;;6.70;;
5967;SDS011;3010;51.028;4.170;2023-03-20T09:37:05;15.83;;;6.50;;
5967;SDS011;3010;51.028;4.170;2023-03-20T09:39:32;14.90;;;6.73;;
5967;SDS011;3010;51.028;4.170;2023-03-20T09:42:06;11.13;;;6.37;;
5967;SDS011;3010;51.028;4.170;2023-03-20T09:47:12;12.60;;;6.33;;
5967;SDS011;3010;51.028;4.170;2023-03-20T09:49:44;15.30;;;6.03;;
5967;SDS011;3010;51.028;4.170;2023-03-20T09:52:30;16.87;;;6.83;;
5967;SDS011;3010;51.028;4.170;2023-03-20T09:54:57;13.63;;;6.70;;
5967;SDS011;3010;51.028;4.170;2023-03-20T09:57:30;14.10;;;6.63;;
5967;SDS011;3010;51.028;4.170;2023-03-20T09:59:56;17.67;;;6.33;;
5967;SDS011;3010;51.028;4.170;2023-03-20T10:02:31;12.87;;;6.37;;
5967;SDS011;3010;51.028;4.170;2023-03-20T10:04:47;15.90;;;6.23;;
5967;SDS011;3010;51.028;4.170;2023-03-20T10:07:14;13.00;;;6.03;;
5967;SDS011;3010;51.028;4.170;2023-03-20T10:09:41;12.33;;;6.80;;
5967;SDS011;3010;51.028;4.170;2023-03-20T10:14:59;18.80;;;7.55;;
5967;SDS011;3010;51.028;4.170;2023-03-20T10:19:55;13.37;;;6.70;;
5967;SDS011;3010;51.028;4.170;2023-03-20T10:22:33;19.10;;;7.37;;
5967;SDS011;3010;51.028;4.170;2023-03-20T10:27:48;12.37;;;6.80;;
5967;SDS011;3010;51.028;4.170;2023-03-20T10:39:04;23.03;;;6.10;;
5967;SDS011;3010;51.028;4.170;2023-03-20T10:41:29;13.90;;;5.87;;
5967;SDS011;3010;51.028;4.170;2023-03-20T10:43:55;19.00;;;6.67;;
5967;SDS011;3010;51.028;4.170;2023-03-20T10:46:30;13.00;;;6.27;;
5967;SDS011;3010;51.028;4.170;2023-03-20T10:49:09;16.70;;;6.00;;
5967;SDS011;3010;51.028;4.170;2023-03-20T10:51:51;13.97;;;6.93;;
5967;SDS011;3010;51.028;4.170;2023-03-20T10:54:27;11.90;;;6.53;;
5967;SDS011;3010;51.028;4.170;2023-03-20T10:56:55;16.13;;;6.80;;
5967;SDS011;3010;51.028;4.170;2023-03-20T10:59:22;13.40;;;6.40;;
5967;SDS011;3010;51.028;4.170;2023-03-20T11:01:48;16.07;;;6.57;;
5967;SDS011;3010;51.028;4.170;2023-03-20T11:04:14;12.30;;;5.83;;
5967;SDS011;3010;51.028;4.170;2023-03-20T11:06:46;13.87;;;5.80;;
5967;SDS011;3010;51.028;4.170;2023-03-20T11:09:15;13.60;;;5.73;;
5967;SDS011;3010;51.028;4.170;2023-03-20T11:11:38;11.40;;;5.77;;
5967;SDS011;3010;51.028;4.170;2023-03-20T11:14:17;14.50;;;6.70;;
5967;SDS011;3010;51.028;4.170;2023-03-20T11:16:42;16.90;;;6.93;;
5967;SDS011;3010;51.028;4.170;2023-03-20T11:19:09;15.97;;;6.37;;
5967;SDS011;3010;51.028;4.170;2023-03-20T11:21:43;13.10;;;5.40;;
5967;SDS011;3010;51.028;4.170;2023-03-20T11:24:02;13.57;;;6.47;;
5967;SDS011;3010;51.028;4.170;2023-03-20T11:28:58;11.57;;;5.00;;
5967;SDS011;3010;51.028;4.170;2023-03-20T11:31:32;10.17;;;6.20;;
5967;SDS011;3010;51.028;4.170;2023-03-20T11:36:30;10.97;;;6.67;;
5967;SDS011;3010;51.028;4.170;2023-03-20T11:39:12;11.47;;;6.50;;
5967;SDS011;3010;51.028;4.170;2023-03-20T11:46:47;13.40;;;6.33;;
5967;SDS011;3010;51.028;4.170;2023-03-20T11:49:19;15.98;;;6.97;;
5967;SDS011;3010;51.028;4.170;2023-03-20T11:51:45;10.37;;;6.13;;
5967;SDS011;3010;51.028;4.170;2023-03-20T11:54:16;10.97;;;6.50;;
5967;SDS011;3010;51.028;4.170;2023-03-20T11:56:50;12.77;;;5.97;;
5967;SDS011;3010;51.028;4.170;2023-03-20T11:59:12;17.97;;;6.30;;
5967;SDS011;3010;51.028;4.170;2023-03-20T12:01:44;13.60;;;6.57;;
5967;SDS011;3010;51.028;4.170;2023-03-20T12:04:19;13.93;;;6.40;;
5967;SDS011;3010;51.028;4.170;2023-03-20T12:09:16;16.40;;;7.03;;
5967;SDS011;3010;51.028;4.170;2023-03-20T12:11:41;14.30;;;6.97;;
5967;SDS011;3010;51.028;4.170;2023-03-20T12:14:11;15.00;;;6.37;;
5967;SDS011;3010;51.028;4.170;2023-03-20T12:16:34;14.93;;;6.57;;
5967;SDS011;3010;51.028;4.170;2023-03-20T12:19:00;14.70;;;6.30;;
5967;SDS011;3010;51.028;4.170;2023-03-20T12:24:30;15.40;;;6.60;;
5967;SDS011;3010;51.028;4.170;2023-03-20T12:26:55;13.27;;;6.77;;
5967;SDS011;3010;51.028;4.170;2023-03-20T12:29:30;10.37;;;6.23;;
5967;SDS011;3010;51.028;4.170;2023-03-20T12:31:57;14.50;;;6.33;;
5967;SDS011;3010;51.028;4.170;2023-03-20T12:34:31;14.23;;;7.23;;
5967;SDS011;3010;51.028;4.170;2023-03-20T12:36:57;14.57;;;6.70;;
5967;SDS011;3010;51.028;4.170;2023-03-20T12:39:31;14.83;;;7.10;;
5967;SDS011;3010;51.028;4.170;2023-03-20T12:44:49;12.47;;;6.40;;
5967;SDS011;3010;51.028;4.170;2023-03-20T12:49:46;18.40;;;7.90;;
5967;SDS011;3010;51.028;4.170;2023-03-20T13:00:33;14.27;;;6.80;;
5967;SDS011;3010;51.028;4.170;2023-03-20T13:08:23;15.90;;;7.82;;
5967;SDS011;3010;51.028;4.170;2023-03-20T13:11:01;15.07;;;7.90;;
5967;SDS011;3010;51.028;4.170;2023-03-20T13:18:46;17.23;;;7.70;;
5967;SDS011;3010;51.028;4.170;2023-03-20T13:21:18;16.27;;;7.70;;
5967;SDS011;3010;51.028;4.170;2023-03-20T13:28:49;12.53;;;7.77;;
5967;SDS011;3010;51.028;4.170;2023-03-20T13:31:21;14.27;;;8.40;;
5967;SDS011;3010;51.028;4.170;2023-03-20T13:34:27;16.77;;;8.52;;
5967;SDS011;3010;51.028;4.170;2023-03-20T13:36:36;18.77;;;7.90;;
5967;SDS011;3010;51.028;4.170;2023-03-20T13:39:27;19.93;;;7.83;;
5967;SDS011;3010;51.028;4.170;2023-03-20T13:41:52;12.57;;;7.20;;
5967;SDS011;3010;51.028;4.170;2023-03-20T13:44:19;10.33;;;7.67;;
5967;SDS011;3010;51.028;4.170;2023-03-20T13:46:46;21.80;;;8.00;;
5967;SDS011;3010;51.028;4.170;2023-03-20T13:52:08;16.87;;;8.43;;
5967;SDS011;3010;51.028;4.170;2023-03-20T13:57:08;17.37;;;8.00;;
5967;SDS011;3010;51.028;4.170;2023-03-20T14:00:00;16.87;;;7.87;;
5967;SDS011;3010;51.028;4.170;2023-03-20T14:02:21;13.57;;;7.63;;
5967;SDS011;3010;51.028;4.170;2023-03-20T14:04:51;14.67;;;8.03;;
5967;SDS011;3010;51.028;4.170;2023-03-20T14:07:34;19.13;;;8.17;;
5967;SDS011;3010;51.028;4.170;2023-03-20T14:13:21;16.23;;;8.23;;
5967;SDS011;3010;51.028;4.170;2023-03-20T14:15:20;13.70;;;8.23;;
5967;SDS011;3010;51.028;4.170;2023-03-20T14:17:47;20.67;;;9.80;;
5967;SDS011;3010;51.028;4.170;2023-03-20T14:20:27;18.03;;;8.60;;
5967;SDS011;3010;51.028;4.170;2023-03-20T14:22:45;19.43;;;9.73;;
5967;SDS011;3010;51.028;4.170;2023-03-20T14:25:21;19.83;;;9.80;;
5967;SDS011;3010;51.028;4.170;2023-03-20T14:32:59;18.63;;;8.67;;
5967;SDS011;3010;51.028;4.170;2023-03-20T14:35:28;22.17;;;8.97;;
5967;SDS011;3010;51.028;4.170;2023-03-20T14:43:17;11.70;;;8.10;;
5967;SDS011;3010;51.028;4.170;2023-03-20T14:45:58;21.83;;;9.10;;
5967;SDS011;3010;51.028;4.170;2023-03-20T14:48:24;13.33;;;8.50;;
5967;SDS011;3010;51.028;4.170;2023-03-20T14:53:24;24.53;;;8.33;;
5967;SDS011;3010;51.028;4.170;2023-03-20T14:55:51;18.47;;;8.00;;
5967;SDS011;3010;51.028;4.170;2023-03-20T15:01:06;19.70;;;8.13;;
5967;SDS011;3010;51.028;4.170;2023-03-20T15:03:32;21.30;;;9.43;;
5967;SDS011;3010;51.028;4.170;2023-03-20T15:05:59;21.10;;;9.07;;
5967;SDS011;3010;51.028;4.170;2023-03-20T15:08:28;22.40;;;10.50;;
5967;SDS011;3010;51.028;4.170;2023-03-20T15:10:52;16.93;;;9.07;;
5967;SDS011;3010;51.028;4.170;2023-03-20T15:13:18;19.90;;;9.43;;
5967;SDS011;3010;51.028;4.170;2023-03-20T15:15:55;19.03;;;10.10;;
5967;SDS011;3010;51.028;4.170;2023-03-20T15:18:22;18.97;;;9.40;;
5967;SDS011;3010;51.028;4.170;2023-03-20T15:20:47;16.53;;;9.93;;
5967;SDS011;3010;51.028;4.170;2023-03-20T15:23:14;15.83;;;8.70;;
5967;SDS011;3010;51.028;4.170;2023-03-20T15:25:42;22.57;;;9.43;;
5967;SDS011;3010;51.028;4.170;2023-03-20T15:28:13;16.30;;;8.93;;
5967;SDS011;3010;51.028;4.170;2023-03-20T15:30:43;16.03;;;8.50;;
5967;SDS011;3010;51.028;4.170;2023-03-20T15:33:13;14.43;;;8.97;;
5967;SDS011;3010;51.028;4.170;2023-03-20T15:35:42;15.30;;;8.67;;
5967;SDS011;3010;51.028;4.170;2023-03-20T15:38:09;20.40;;;9.77;;
5967;SDS011;3010;51.028;4.170;2023-03-20T15:40:37;22.87;;;9.73;;
5967;SDS011;3010;51.028;4.170;2023-03-20T15:43:12;19.03;;;9.20;;
5967;SDS011;3010;51.028;4.170;2023-03-20T15:45:38;27.33;;;9.40;;
5967;SDS011;3010;51.028;4.170;2023-03-20T15:48:05;14.93;;;8.73;;
5967;SDS011;3010;51.028;4.170;2023-03-20T15:50:35;18.97;;;9.30;;
5967;SDS011;3010;51.028;4.170;2023-03-20T15:53:00;19.70;;;9.53;;
5967;SDS011;3010;51.028;4.170;2023-03-20T15:55:27;16.73;;;9.10;;
5967;SDS011;3010;51.028;4.170;2023-03-20T15:57:58;22.40;;;9.47;;
5967;SDS011;3010;51.028;4.170;2023-03-20T16:00:28;16.83;;;8.57;;
5967;SDS011;3010;51.028;4.170;2023-03-20T16:02:55;12.73;;;8.83;;
5967;SDS011;3010;51.028;4.170;2023-03-20T16:05:23;19.10;;;9.83;;
5967;SDS011;3010;51.028;4.170;2023-03-20T16:07:48;23.83;;;10.80;;
5967;SDS011;3010;51.028;4.170;2023-03-20T16:10:20;22.03;;;9.53;;
5967;SDS011;3010;51.028;4.170;2023-03-20T16:12:48;18.20;;;9.13;;
5967;SDS011;3010;51.028;4.170;2023-03-20T16:15:15;20.30;;;9.43;;
5967;SDS011;3010;51.028;4.170;2023-03-20T16:17:40;21.00;;;10.10;;
5967;SDS011;3010;51.028;4.170;2023-03-20T16:20:13;22.93;;;9.13;;
5967;SDS011;3010;51.028;4.170;2023-03-20T16:22:39;15.50;;;9.13;;
5967;SDS011;3010;51.028;4.170;2023-03-20T16:25:08;19.03;;;9.47;;
5967;SDS011;3010;51.028;4.170;2023-03-20T16:27:33;16.60;;;9.13;;
5967;SDS011;3010;51.028;4.170;2023-03-20T16:30:03;18.60;;;9.80;;
5967;SDS011;3010;51.028;4.170;2023-03-20T16:32:48;18.67;;;9.67;;
5967;SDS011;3010;51.028;4.170;2023-03-20T16:35:06;23.90;;;9.80;;
5967;SDS011;3010;51.028;4.170;2023-03-20T16:37:35;19.83;;;10.20;;
5967;SDS011;3010;51.028;4.170;2023-03-20T16:45:40;23.60;;;10.70;;
5967;SDS011;3010;51.028;4.170;2023-03-20T16:50:40;16.17;;;10.67;;
5967;SDS011;3010;51.028;4.170;2023-03-20T16:53:10;20.50;;;10.60;;
5967;SDS011;3010;51.028;4.170;2023-03-20T16:55:36;21.00;;;10.13;;
5967;SDS011;3010;51.028;4.170;2023-03-20T16:58:03;18.70;;;10.33;;
5967;SDS011;3010;51.028;4.170;2023-03-20T17:00:31;21.73;;;11.70;;
5967;SDS011;3010;51.028;4.170;2023-03-20T17:03:00;18.33;;;10.00;;
5967;SDS011;3010;51.028;4.170;2023-03-20T17:05:33;22.67;;;10.80;;
5967;SDS011;3010;51.028;4.170;2023-03-20T17:07:54;19.60;;;9.63;;